Time;durP1;ratioP1;P1;durP2;ratioP2;P2;SDS_P1;SDS_P2;PMS_P1;PMS_P2;Temp;Humidity;BMP_temperature;BMP_pressure;BME280_temperature;BME280_humidity;BME280_pressure;Samples;Min_cycle;Max_cycle;Signal;HPM_P1;HPM_P2
2021/06/25 00:01:03;;;;;;;40.28;27.98;;;17.70;60.30;;;;;;5053551;28;20389;-75
2021/06/25 00:03:29;;;;;;;44.70;28.33;;;17.70;61.30;;;;;;5054219;28;20393;-75
2021/06/25 00:05:54;;;;;;;44.63;29.13;;;17.60;62.00;;;;;;5053450;28;20415;-75
2021/06/25 00:08:20;;;;;;;42.85;27.48;;;17.60;61.90;;;;;;5054446;28;20411;-75
2021/06/25 00:10:45;;;;;;;45.42;27.90;;;17.60;62.30;;;;;;5053985;28;20381;-74
2021/06/25 00:13:11;;;;;;;41.28;27.13;;;17.60;62.90;;;;;;5053726;28;20392;-75
2021/06/25 00:16:31;;;;;;;44.17;27.50;;;17.80;61.50;;;;;;5053915;28;20754;-74
2021/06/25 00:18:56;;;;;;;37.30;26.40;;;17.90;58.80;;;;;;5036961;28;20426;-75
2021/06/25 00:21:22;;;;;;;39.47;26.40;;;18.00;58.50;;;;;;5033807;28;20919;-75
2021/06/25 00:23:48;;;;;;;43.90;27.52;;;17.80;59.90;;;;;;5044039;28;20483;-74
2021/06/25 00:26:13;;;;;;;43.03;27.73;;;17.80;61.10;;;;;;5053996;28;20401;-75
2021/06/25 00:28:39;;;;;;;42.70;27.17;;;17.80;60.10;;;;;;5053366;28;20405;-75
2021/06/25 00:31:04;;;;;;;43.00;28.67;;;17.80;59.80;;;;;;5053828;28;20411;-74
2021/06/25 00:33:30;;;;;;;41.63;28.15;;;17.80;59.70;;;;;;5053384;28;20912;-76
2021/06/25 00:35:55;;;;;;;41.80;28.67;;;17.70;59.40;;;;;;5054056;28;20388;-76
2021/06/25 00:38:21;;;;;;;42.50;27.43;;;17.70;59.90;;;;;;5053513;28;20874;-74
2021/06/25 00:40:47;;;;;;;44.80;28.43;;;17.50;61.40;;;;;;5053167;28;20977;-74
2021/06/25 00:43:12;;;;;;;41.90;28.10;;;17.30;62.90;;;;;;5053117;28;20405;-75
2021/06/25 00:45:38;;;;;;;45.03;29.15;;;17.10;64.10;;;;;;5053656;28;20750;-75
2021/06/25 00:48:04;;;;;;;40.37;29.03;;;17.30;63.20;;;;;;5054022;28;20785;-75
2021/06/25 00:50:33;;;;;;;55.33;31.33;;;17.30;62.30;;;;;;5054099;28;20381;-74
2021/06/25 00:52:59;;;;;;;48.40;30.58;;;17.30;62.60;;;;;;5052269;28;20400;-75
2021/06/25 00:55:27;;;;;;;51.90;29.13;;;17.20;63.50;;;;;;5053913;28;20385;-76
2021/06/25 00:57:53;;;;;;;47.93;30.33;;;17.10;65.00;;;;;;5053939;28;20890;-75
2021/06/25 01:00:19;;;;;;;48.13;29.98;;;17.10;67.00;;;;;;5053664;28;20389;-75
2021/06/25 01:02:45;;;;;;;51.40;30.80;;;17.00;67.50;;;;;;5052971;28;20381;-75
2021/06/25 01:05:12;;;;;;;46.28;31.23;;;16.90;68.10;;;;;;5053388;28;20894;-75
2021/06/25 01:07:38;;;;;;;51.30;31.05;;;16.80;69.30;;;;;;5053295;28;20409;-76
2021/06/25 01:10:11;;;;;;;52.85;32.95;;;16.80;70.40;;;;;;5052706;28;20386;-76
2021/06/25 01:12:41;;;;;;;51.17;31.98;;;16.70;70.70;;;;;;5053121;28;20382;-75
2021/06/25 01:15:07;;;;;;;48.53;31.02;;;16.70;72.30;;;;;;5053576;28;20576;-75
2021/06/25 01:17:39;;;;;;;51.03;31.60;;;16.50;73.40;;;;;;5048616;28;20407;-75
2021/06/25 01:20:11;;;;;;;55.50;30.88;;;16.50;74.20;;;;;;5033310;28;20752;-76
2021/06/25 01:22:42;;;;;;;50.05;31.80;;;16.40;74.70;;;;;;5031611;28;20414;-76
2021/06/25 01:25:11;;;;;;;43.75;29.88;;;16.40;75.00;;;;;;5053053;28;20399;-76
2021/06/25 01:27:38;;;;;;;45.90;30.73;;;16.40;75.20;;;;;;5052838;28;20783;-76
2021/06/25 01:30:07;;;;;;;49.45;30.60;;;16.30;76.60;;;;;;5053395;28;20793;-76
2021/06/25 01:32:32;;;;;;;51.63;32.20;;;16.20;77.80;;;;;;5054415;28;20374;-77
2021/06/25 01:35:01;;;;;;;54.40;30.30;;;16.20;78.70;;;;;;5056074;28;20403;-76
2021/06/25 01:37:28;;;;;;;47.22;30.33;;;16.10;79.40;;;;;;5056470;28;20773;-76
2021/06/25 01:39:54;;;;;;;48.38;30.63;;;16.10;78.80;;;;;;5053707;28;20393;-76
2021/06/25 01:42:19;;;;;;;52.20;31.25;;;16.10;79.10;;;;;;5052178;28;20393;-76
2021/06/25 01:44:46;;;;;;;57.25;31.60;;;16.10;80.20;;;;;;5052216;28;20481;-76
2021/06/25 01:47:13;;;;;;;47.63;31.25;;;16.00;79.80;;;;;;5050981;28;20405;-76
2021/06/25 01:49:39;;;;;;;47.63;30.10;;;16.00;80.80;;;;;;5052047;28;20457;-76
2021/06/25 01:52:05;;;;;;;45.57;31.30;;;15.90;81.10;;;;;;5051980;28;20386;-76
2021/06/25 01:54:30;;;;;;;54.43;31.67;;;15.80;81.90;;;;;;5052117;28;20409;-76
2021/06/25 01:56:56;;;;;;;51.17;31.40;;;15.80;82.80;;;;;;5052510;28;20831;-76
2021/06/25 01:59:22;;;;;;;53.15;31.42;;;15.70;83.70;;;;;;5052141;28;20432;-75
2021/06/25 02:01:48;;;;;;;55.20;31.23;;;15.80;83.30;;;;;;5050857;28;20938;-75
2021/06/25 02:04:14;;;;;;;52.53;32.10;;;15.90;82.80;;;;;;5051789;28;20385;-76
2021/06/25 02:06:39;;;;;;;54.50;33.00;;;15.80;82.70;;;;;;5052155;28;20404;-76
2021/06/25 02:09:05;;;;;;;47.83;31.40;;;15.80;82.70;;;;;;5052142;28;20398;-76
2021/06/25 02:11:31;;;;;;;50.22;30.90;;;15.70;83.70;;;;;;5051569;28;20395;-76
2021/06/25 02:13:56;;;;;;;53.27;31.63;;;15.60;85.60;;;;;;5051186;28;20947;-75
2021/06/25 02:16:22;;;;;;;44.38;31.30;;;15.40;87.90;;;;;;5051795;28;20703;-75
2021/06/25 02:18:47;;;;;;;56.55;32.53;;;15.30;88.60;;;;;;5037111;28;20375;-75
2021/06/25 02:21:13;;;;;;;52.28;32.97;;;15.10;91.20;;;;;;5030717;28;20857;-75
2021/06/25 02:23:39;;;;;;;52.90;34.03;;;15.00;94.20;;;;;;5044527;28;20484;-75
2021/06/25 02:26:05;;;;;;;50.40;32.15;;;14.90;93.50;;;;;;5051411;28;20390;-75
2021/06/25 02:28:31;;;;;;;52.63;32.83;;;14.80;94.90;;;;;;5051269;28;20467;-75
2021/06/25 02:30:57;;;;;;;52.60;33.60;;;14.80;96.10;;;;;;5051254;28;20378;-75
2021/06/25 02:33:23;;;;;;;50.08;33.08;;;14.80;96.90;;;;;;5050753;28;20397;-75
2021/06/25 02:35:50;;;;;;;56.83;32.20;;;14.80;95.30;;;;;;5051196;28;20797;-75
2021/06/25 02:38:16;;;;;;;57.65;34.72;;;14.80;96.10;;;;;;5051470;28;20882;-75
2021/06/25 02:40:42;;;;;;;53.70;33.33;;;14.60;97.20;;;;;;5051046;28;20458;-74
2021/06/25 02:43:08;;;;;;;57.10;33.65;;;14.50;96.80;;;;;;5050791;28;20393;-75
2021/06/25 02:45:33;;;;;;;51.67;32.97;;;14.40;97.60;;;;;;5051389;28;20393;-75
2021/06/25 02:47:59;;;;;;;51.37;33.00;;;14.40;96.10;;;;;;5051174;28;20393;-75
2021/06/25 02:50:25;;;;;;;53.73;32.80;;;14.60;95.20;;;;;;5050972;28;20381;-75
2021/06/25 02:52:50;;;;;;;48.37;31.80;;;14.60;95.20;;;;;;5067419;28;20393;-74
2021/06/25 02:55:16;;;;;;;49.83;32.17;;;14.60;92.80;;;;;;5054317;28;20397;-75
2021/06/25 02:57:42;;;;;;;47.50;31.30;;;14.60;90.60;;;;;;5054026;28;20378;-74
2021/06/25 03:00:12;;;;;;;52.15;31.38;;;14.50;92.90;;;;;;5052181;28;20381;-75
2021/06/25 03:02:38;;;;;;;51.13;31.63;;;14.60;91.40;;;;;;5050473;28;20393;-75
2021/06/25 03:05:06;;;;;;;48.67;30.98;;;14.70;92.20;;;;;;5050739;28;20404;-75
2021/06/25 03:07:31;;;;;;;55.80;31.85;;;14.80;85.00;;;;;;5051003;28;20748;-75
2021/06/25 03:09:59;;;;;;;48.97;30.00;;;14.60;88.40;;;;;;5053311;28;22807;-75
2021/06/25 03:12:25;;;;;;;53.27;30.90;;;14.40;91.60;;;;;;5053669;28;20429;-75
2021/06/25 03:14:50;;;;;;;48.67;31.70;;;14.30;93.90;;;;;;5052701;28;20400;-75
2021/06/25 03:17:16;;;;;;;52.97;32.03;;;14.20;94.60;;;;;;5049887;28;20387;-74
2021/06/25 03:19:42;;;;;;;52.60;31.47;;;14.10;95.20;;;;;;5031007;28;20398;-75
2021/06/25 03:22:07;;;;;;;48.60;31.03;;;14.10;95.60;;;;;;5031311;28;20397;-76
2021/06/25 03:24:33;;;;;;;51.17;32.03;;;14.10;96.20;;;;;;5048640;28;20453;-76
2021/06/25 03:26:59;;;;;;;53.63;31.65;;;14.00;96.70;;;;;;5051387;28;20480;-75
2021/06/25 03:29:24;;;;;;;52.97;30.80;;;14.30;93.90;;;;;;5052158;28;20456;-76
2021/06/25 03:31:50;;;;;;;44.10;30.63;;;14.40;92.70;;;;;;5053838;28;20804;-76
2021/06/25 03:34:15;;;;;;;45.60;29.45;;;14.30;94.20;;;;;;5052136;28;20402;-76
2021/06/25 03:36:41;;;;;;;49.85;29.80;;;14.20;95.30;;;;;;5051776;28;20400;-75
2021/06/25 03:39:07;;;;;;;49.40;30.17;;;14.40;95.50;;;;;;5052773;28;20466;-75
2021/06/25 03:41:32;;;;;;;44.07;29.10;;;14.50;92.40;;;;;;5053184;28;20382;-77
2021/06/25 03:43:58;;;;;;;46.83;30.13;;;14.40;93.40;;;;;;5052498;28;20405;-76
2021/06/25 03:46:23;;;;;;;48.67;29.53;;;14.30;94.90;;;;;;5067067;28;20425;-76
2021/06/25 03:48:49;;;;;;;49.25;30.75;;;14.40;93.80;;;;;;5050414;28;20458;-76
2021/06/25 03:51:16;;;;;;;49.15;31.05;;;14.40;93.70;;;;;;5052689;28;20438;-76
2021/06/25 03:53:42;;;;;;;50.35;31.52;;;14.30;95.40;;;;;;5052080;28;20436;-77
2021/06/25 03:56:11;;;;;;;55.35;31.05;;;14.30;96.40;;;;;;5053530;28;20385;-75
2021/06/25 03:58:50;;;;;;;50.47;30.10;;;14.20;97.40;;;;;;5052900;28;20558;-77
2021/06/25 04:01:17;;;;;;;45.00;29.85;;;14.30;98.70;;;;;;5054752;28;20387;-77
2021/06/25 04:03:43;;;;;;;52.17;31.42;;;14.50;97.90;;;;;;5050533;28;20433;-76
2021/06/25 04:06:09;;;;;;;44.80;30.08;;;14.50;96.80;;;;;;5050754;28;20814;-76
2021/06/25 04:08:35;;;;;;;45.85;29.77;;;14.60;95.40;;;;;;5051150;28;20508;-76
2021/06/25 04:11:03;;;;;;;52.53;29.98;;;14.70;95.40;;;;;;5051226;28;20386;-76
2021/06/25 04:13:30;;;;;;;47.80;31.13;;;14.70;94.40;;;;;;5066371;28;20393;-76
2021/06/25 04:15:56;;;;;;;47.45;31.75;;;14.70;93.80;;;;;;5050257;28;20397;-76
2021/06/25 04:18:22;;;;;;;43.97;29.83;;;14.80;92.50;;;;;;5051758;28;20450;-76
2021/06/25 04:20:48;;;;;;;50.47;30.67;;;14.90;91.20;;;;;;5052939;28;20392;-76
2021/06/25 04:23:14;;;;;;;46.88;29.52;;;14.90;88.70;;;;;;5050875;28;20393;-75
2021/06/25 04:25:40;;;;;;;44.60;28.55;;;14.90;89.50;;;;;;5050551;28;20399;-75
2021/06/25 04:28:07;;;;;;;48.05;30.88;;;14.90;90.50;;;;;;5050123;28;20424;-74
2021/06/25 04:30:33;;;;;;;48.53;31.42;;;15.20;84.20;;;;;;5051698;28;20377;-76
2021/06/25 04:33:00;;;;;;;48.05;30.55;;;15.30;82.90;;;;;;5050867;28;20389;-76
2021/06/25 04:35:30;;;;;;;48.17;31.75;;;15.20;83.20;;;;;;5050982;28;20449;-75
2021/06/25 04:37:56;;;;;;;46.25;30.23;;;15.30;82.40;;;;;;5054460;28;20428;-76
2021/06/25 04:40:21;;;;;;;58.55;36.97;;;15.60;76.80;;;;;;5067483;28;20401;-76
2021/06/25 04:42:47;;;;;;;51.65;33.40;;;15.50;77.40;;;;;;5050456;28;20400;-77
2021/06/25 04:45:14;;;;;;;54.10;33.50;;;15.50;76.50;;;;;;5052218;28;20401;-76
2021/06/25 04:47:41;;;;;;;51.97;31.50;;;15.40;77.70;;;;;;5054275;28;20409;-77
2021/06/25 04:50:07;;;;;;;53.05;36.33;;;15.60;76.70;;;;;;5054384;28;20392;-75
2021/06/25 04:52:33;;;;;;;52.53;33.13;;;15.60;78.30;;;;;;5051834;28;20400;-75
2021/06/25 04:54:58;;;;;;;55.55;33.35;;;15.70;74.20;;;;;;5054092;28;20747;-77
2021/06/25 04:57:24;;;;;;;54.30;34.63;;;15.70;74.70;;;;;;5057907;28;20862;-77
2021/06/25 04:59:49;;;;;;;61.25;36.65;;;15.70;71.90;;;;;;5058091;28;20412;-76
2021/06/25 05:02:15;;;;;;;61.93;36.70;;;15.80;72.10;;;;;;5055645;28;20491;-76
2021/06/25 05:04:40;;;;;;;65.13;38.70;;;15.80;72.50;;;;;;5053870;28;20400;-76
2021/06/25 05:07:06;;;;;;;69.63;39.75;;;15.90;72.40;;;;;;5053901;28;20409;-76
2021/06/25 05:09:32;;;;;;;85.00;49.83;;;16.00;71.90;;;;;;5053809;28;20378;-76
2021/06/25 05:11:57;;;;;;;86.20;46.27;;;16.00;69.80;;;;;;5052634;28;20421;-75
2021/06/25 05:14:23;;;;;;;78.00;46.13;;;16.10;68.40;;;;;;5055810;28;20416;-77
2021/06/25 05:16:48;;;;;;;65.77;40.80;;;16.10;67.90;;;;;;5056108;28;20461;-77
2021/06/25 05:19:14;;;;;;;63.53;38.22;;;16.20;66.00;;;;;;5055314;28;20381;-77
2021/06/25 05:21:40;;;;;;;52.63;32.45;;;16.20;63.10;;;;;;5054662;28;20405;-77
2021/06/25 05:24:06;;;;;;;54.60;32.17;;;16.30;63.70;;;;;;5055932;28;20407;-77
2021/06/25 05:26:31;;;;;;;52.40;32.75;;;16.30;65.80;;;;;;5055794;28;20405;-78
2021/06/25 05:28:57;;;;;;;52.67;32.28;;;16.30;65.10;;;;;;5054992;28;20892;-77
2021/06/25 05:31:23;;;;;;;52.80;33.25;;;16.40;64.00;;;;;;5054790;28;20410;-75
2021/06/25 05:33:48;;;;;;;51.30;32.77;;;16.50;64.40;;;;;;5052676;28;20393;-77
2021/06/25 05:36:14;;;;;;;55.37;33.63;;;16.80;59.00;;;;;;5052775;28;20393;-75
2021/06/25 05:38:40;;;;;;;54.33;33.25;;;16.80;57.50;;;;;;5046809;28;20483;-76
2021/06/25 05:41:06;;;;;;;56.38;32.00;;;16.90;54.90;;;;;;5052132;28;20506;-75
2021/06/25 05:43:31;;;;;;;54.70;33.00;;;16.90;56.30;;;;;;5052325;28;20393;-75
2021/06/25 05:45:59;;;;;;;55.47;32.95;;;17.00;53.40;;;;;;5051017;28;20408;-76
2021/06/25 05:48:25;;;;;;;56.72;33.80;;;17.10;52.60;;;;;;5051931;28;20416;-76
2021/06/25 05:50:51;;;;;;;61.78;36.47;;;17.20;53.20;;;;;;5052412;28;20393;-75
2021/06/25 05:53:16;;;;;;;54.90;35.25;;;17.30;54.30;;;;;;5052802;28;20397;-75
2021/06/25 05:55:42;;;;;;;53.60;35.00;;;17.30;55.10;;;;;;5042129;28;20392;-75
2021/06/25 05:58:08;;;;;;;66.27;36.47;;;17.50;53.20;;;;;;5050712;28;20405;-75
2021/06/25 06:00:33;;;;;;;57.47;35.67;;;17.60;51.90;;;;;;5052647;28;20874;-76
2021/06/25 06:02:59;;;;;;;59.20;35.10;;;17.80;51.70;;;;;;5052893;28;20484;-76
2021/06/25 06:05:25;;;;;;;55.30;35.35;;;17.90;48.00;;;;;;5052046;28;20400;-74
2021/06/25 06:07:51;;;;;;;55.92;34.63;;;17.90;48.30;;;;;;5052014;28;20405;-74
2021/06/25 06:10:17;;;;;;;58.55;35.30;;;18.00;48.10;;;;;;5052679;28;20465;-77
2021/06/25 06:12:43;;;;;;;51.85;33.33;;;18.10;47.50;;;;;;5050660;28;20401;-77
2021/06/25 06:15:09;;;;;;;60.03;35.55;;;18.10;46.20;;;;;;5051806;28;20385;-76
2021/06/25 06:17:40;;;;;;;60.03;33.65;;;18.20;45.90;;;;;;5051257;28;20451;-74
2021/06/25 06:20:07;;;;;;;48.72;30.85;;;18.30;43.90;;;;;;5051486;28;20393;-76
2021/06/25 06:33:34;;;;;;;44.97;28.55;;;18.50;39.20;;;;;;5050952;28;20976;-75
2021/06/25 06:36:04;;;;;;;41.53;29.30;;;18.70;38.30;;;;;;5050405;28;20882;-74
2021/06/25 06:38:30;;;;;;;40.95;29.40;;;18.70;37.60;;;;;;5066299;28;20397;-73
2021/06/25 06:40:55;;;;;;;43.42;28.85;;;18.70;37.70;;;;;;5051123;28;20389;-75
2021/06/25 06:43:21;;;;;;;42.45;26.27;;;18.70;37.20;;;;;;5051405;28;20382;-75
2021/06/25 06:45:46;;;;;;;36.00;23.77;;;18.80;36.60;;;;;;5049821;28;20398;-74
2021/06/25 06:48:12;;;;;;;39.70;25.03;;;19.00;30.50;;;;;;5063971;28;20416;-74
2021/06/25 06:50:37;;;;;;;38.87;24.37;;;19.00;30.80;;;;;;5050680;28;20962;-75
2021/06/25 06:53:03;;;;;;;37.58;24.48;;;19.10;31.50;;;;;;5050080;28;20397;-75
2021/06/25 06:55:29;;;;;;;32.13;22.40;;;19.10;29.50;;;;;;5066402;28;20394;-76
2021/06/25 06:57:55;;;;;;;32.63;20.93;;;19.10;27.60;;;;;;5051852;28;20881;-76
2021/06/25 07:00:21;;;;;;;41.13;24.13;;;19.20;29.10;;;;;;5058830;28;20397;-76
2021/06/25 07:02:46;;;;;;;33.17;21.83;;;19.10;28.90;;;;;;5052639;28;20416;-76
2021/06/25 07:05:14;;;;;;;35.03;23.00;;;19.20;29.50;;;;;;5048829;28;20772;-75
2021/06/25 07:07:40;;;;;;;31.67;22.20;;;19.20;28.80;;;;;;5049940;28;20409;-75
2021/06/25 07:10:07;;;;;;;34.80;21.98;;;19.40;27.70;;;;;;5043920;28;20480;-74
2021/06/25 07:12:33;;;;;;;37.90;22.40;;;19.60;28.60;;;;;;5048116;28;20402;-74
2021/06/25 07:14:59;;;;;;;31.95;20.88;;;19.80;27.80;;;;;;5050345;28;20393;-74
2021/06/25 07:17:24;;;;;;;28.15;17.67;;;20.10;25.10;;;;;;5044336;28;20488;-75
2021/06/25 07:19:51;;;;;;;29.70;18.60;;;20.00;23.90;;;;;;5050272;28;20486;-75
2021/06/25 07:22:16;;;;;;;29.83;17.85;;;19.90;23.70;;;;;;5043723;28;20399;-76
2021/06/25 07:24:42;;;;;;;26.73;18.63;;;19.90;24.10;;;;;;5050098;28;20400;-73
2021/06/25 07:27:08;;;;;;;32.25;19.35;;;19.90;24.70;;;;;;5053837;28;20397;-75
2021/06/25 07:29:34;;;;;;;30.25;19.77;;;20.00;24.50;;;;;;5052088;28;20389;-75
2021/06/25 07:32:00;;;;;;;34.25;21.08;;;20.10;24.60;;;;;;5052594;28;20398;-77
2021/06/25 07:34:26;;;;;;;35.15;22.27;;;20.10;25.20;;;;;;5048916;28;20393;-76
2021/06/25 07:36:51;;;;;;;38.53;22.93;;;20.10;25.40;;;;;;5043162;28;20397;-77
2021/06/25 07:39:17;;;;;;;31.30;21.40;;;20.10;25.80;;;;;;5037816;28;20387;-77
2021/06/25 07:41:43;;;;;;;37.38;20.80;;;20.20;25.70;;;;;;5037930;28;20395;-77
2021/06/25 07:44:08;;;;;;;32.25;19.95;;;20.30;25.60;;;;;;5060286;28;20397;-76
2021/06/25 07:46:34;;;;;;;31.53;20.37;;;20.40;25.10;;;;;;5069179;28;20432;-77
2021/06/25 07:49:00;;;;;;;36.20;19.03;;;20.50;23.00;;;;;;5056706;28;20774;-76
2021/06/25 07:51:25;;;;;;;30.40;20.70;;;20.60;23.30;;;;;;5057493;28;20451;-77
2021/06/25 07:53:52;;;;;;;30.43;20.20;;;20.50;23.60;;;;;;5053272;28;20534;-76
2021/06/25 07:56:18;;;;;;;35.20;20.58;;;20.50;23.00;;;;;;5049278;28;20411;-75
2021/06/25 07:58:44;;;;;;;34.40;20.08;;;20.50;23.50;;;;;;5049460;28;20845;-74
2021/06/25 08:01:09;;;;;;;31.30;20.77;;;20.60;23.50;;;;;;5052090;28;20405;-73
2021/06/25 08:03:35;;;;;;;34.50;19.58;;;20.80;22.80;;;;;;5046948;28;20397;-75
2021/06/25 08:06:02;;;;;;;32.70;19.47;;;20.90;22.20;;;;;;5067680;28;20394;-74
2021/06/25 08:08:27;;;;;;;35.03;20.58;;;21.00;21.60;;;;;;5048881;28;20873;-76
2021/06/25 08:10:53;;;;;;;26.50;19.80;;;21.10;20.80;;;;;;5044467;28;20412;-77
2021/06/25 08:13:19;;;;;;;29.27;20.20;;;21.20;21.00;;;;;;5050603;28;20460;-75
2021/06/25 08:15:49;;;;;;;33.58;20.85;;;21.30;20.20;;;;;;5032282;28;20926;-76
2021/06/25 08:18:18;;;;;;;32.05;21.60;;;21.50;20.00;;;;;;5037079;28;20403;-74
2021/06/25 08:20:45;;;;;;;34.10;20.92;;;21.70;19.80;;;;;;5047243;28;20423;-74
2021/06/25 08:23:10;;;;;;;27.55;19.17;;;21.90;19.50;;;;;;5050355;28;20846;-74
2021/06/25 08:25:36;;;;;;;37.63;20.00;;;22.20;19.60;;;;;;5047686;28;20526;-75
2021/06/25 08:28:02;;;;;;;33.65;20.40;;;22.60;19.30;;;;;;5042804;28;20413;-76
2021/06/25 08:30:28;;;;;;;30.13;21.10;;;23.00;18.60;;;;;;5055802;28;20412;-77
2021/06/25 08:32:54;;;;;;;31.90;21.90;;;23.00;18.20;;;;;;5059472;28;20397;-76
2021/06/25 08:35:21;;;;;;;28.98;19.92;;;23.20;17.10;;;;;;5057814;28;20381;-77
2021/06/25 08:37:48;;;;;;;30.55;19.98;;;23.40;17.10;;;;;;5060757;28;20886;-76
2021/06/25 08:40:15;;;;;;;31.17;20.80;;;23.60;17.10;;;;;;5054396;28;20425;-76
2021/06/25 08:42:40;;;;;;;34.78;20.70;;;23.80;16.20;;;;;;5056938;28;20810;-76
2021/06/25 08:45:08;;;;;;;28.63;20.10;;;23.80;16.40;;;;;;5056505;28;20385;-76
2021/06/25 08:47:44;;;;;;;40.30;20.25;;;24.20;16.10;;;;;;5055183;28;20882;-76
2021/06/25 08:50:11;;;;;;;26.70;19.53;;;24.20;15.70;;;;;;5055337;28;20397;-76
2021/06/25 08:52:38;;;;;;;28.15;19.75;;;24.20;15.60;;;;;;5071336;28;20399;-76
2021/06/25 08:55:04;;;;;;;27.70;19.63;;;24.20;15.10;;;;;;5052791;28;20488;-76
2021/06/25 08:57:35;;;;;;;28.17;19.88;;;24.50;15.30;;;;;;5054053;28;20409;-76
2021/06/25 09:00:05;;;;;;;30.63;20.05;;;24.90;14.10;;;;;;5053907;28;20404;-76
2021/06/25 09:02:35;;;;;;;27.17;18.92;;;24.80;13.90;;;;;;5054165;28;20785;-76
2021/06/25 09:05:05;;;;;;;24.10;17.90;;;24.80;14.10;;;;;;5054354;28;20385;-76
2021/06/25 09:07:42;;;;;;;27.30;18.33;;;25.00;13.40;;;;;;5052685;28;20427;-76
2021/06/25 09:10:12;;;;;;;24.90;17.60;;;25.00;13.10;;;;;;5053765;28;20389;-74
2021/06/25 09:12:39;;;;;;;25.90;17.17;;;25.00;13.10;;;;;;5053445;28;20831;-75
2021/06/25 09:15:06;;;;;;;28.25;16.35;;;24.60;12.90;;;;;;5069578;28;20393;-76
2021/06/25 09:17:55;;;;;;;27.25;18.33;;;24.60;14.70;;;;;;5053487;28;20416;-75
2021/06/25 09:20:43;;;;;;;25.75;17.45;;;24.70;12.30;;;;;;5052657;28;20692;-75
2021/06/25 09:23:14;;;;;;;27.65;17.05;;;24.80;13.00;;;;;;5071036;22;20935;-73
2021/06/25 09:25:54;;;;;;;26.20;17.07;;;24.80;12.70;;;;;;5063154;28;20453;-73
2021/06/25 09:28:22;;;;;;;21.10;16.30;;;25.20;11.40;;;;;;5056143;28;20405;-74
2021/06/25 09:30:48;;;;;;;20.60;16.00;;;25.10;11.00;;;;;;5064863;28;20434;-74
2021/06/25 09:33:14;;;;;;;22.27;15.90;;;24.90;11.00;;;;;;5077158;28;20387;-73
2021/06/25 09:35:39;;;;;;;20.77;15.07;;;24.80;11.30;;;;;;5076984;28;20748;-73
2021/06/25 09:38:05;;;;;;;24.07;17.13;;;25.00;11.20;;;;;;5080050;28;20395;-75
2021/06/25 09:40:36;;;;;;;19.70;15.80;;;25.30;10.00;;;;;;5069089;28;20762;-73
2021/06/25 09:43:13;;;;;;;23.02;16.15;;;25.40;10.10;;;;;;5055378;28;20389;-72
2021/06/25 09:45:49;;;;;;;22.05;15.80;;;25.10;10.50;;;;;;5056907;28;20389;-74
2021/06/25 09:48:16;;;;;;;21.90;15.27;;;24.80;10.50;;;;;;5059772;28;20405;-73
2021/06/25 09:50:44;;;;;;;20.03;14.57;;;24.50;10.50;;;;;;5072407;28;20388;-73
2021/06/25 09:53:10;;;;;;;28.13;16.17;;;24.50;11.90;;;;;;5078035;28;20884;-74
2021/06/25 09:55:51;;;;;;;22.90;15.33;;;24.30;11.30;;;;;;5082873;28;20459;-74
2021/06/25 09:58:27;;;;;;;21.50;15.55;;;24.40;11.60;;;;;;5088443;28;20475;-74
2021/06/25 10:01:28;;;;;;;21.93;15.43;;;24.40;10.90;;;;;;5072470;28;20454;-73
2021/06/25 10:03:56;;;;;;;23.13;14.60;;;24.60;10.30;;;;;;5065080;28;20389;-73
2021/06/25 10:06:33;;;;;;;20.20;14.70;;;24.70;10.30;;;;;;5069961;28;20388;-74
2021/06/25 10:09:00;;;;;;;19.60;14.70;;;24.60;9.90;;;;;;5065682;28;20405;-73
2021/06/25 10:11:27;;;;;;;18.67;14.77;;;24.50;10.10;;;;;;5064435;28;20409;-74
2021/06/25 10:13:56;;;;;;;20.20;14.73;;;24.40;10.20;;;;;;5062856;28;20380;-74
2021/06/25 10:16:23;;;;;;;20.95;15.07;;;24.30;10.50;;;;;;5056782;28;20381;-74
2021/06/25 10:18:59;;;;;;;22.23;14.90;;;24.40;10.60;;;;;;5056425;28;20442;-73
2021/06/25 10:21:29;;;;;;;21.83;14.48;;;24.70;10.10;;;;;;5069497;28;20769;-73
2021/06/25 10:23:59;;;;;;;21.92;14.52;;;24.30;10.40;;;;;;5074125;28;20403;-74
2021/06/25 10:26:25;;;;;;;25.42;16.48;;;23.70;11.70;;;;;;5075261;28;20398;-74
2021/06/25 10:28:52;;;;;;;18.77;15.10;;;23.70;12.40;;;;;;5065175;28;20421;-74
2021/06/25 10:31:21;;;;;;;21.27;15.33;;;23.80;11.60;;;;;;5063135;28;20391;-72
2021/06/25 10:33:49;;;;;;;24.92;16.55;;;23.90;11.20;;;;;;5065196;28;20412;-73
2021/06/25 10:36:17;;;;;;;23.70;16.90;;;23.90;10.80;;;;;;5052445;28;20404;-72
2021/06/25 10:38:44;;;;;;;20.60;15.27;;;23.80;10.70;;;;;;5051383;28;20411;-72
2021/06/25 10:41:12;;;;;;;22.90;16.42;;;23.90;11.40;;;;;;5042064;28;20457;-73
2021/06/25 10:43:39;;;;;;;23.93;16.30;;;24.00;11.10;;;;;;5040812;28;20475;-73
2021/06/25 10:46:05;;;;;;;21.77;15.00;;;24.40;10.50;;;;;;5051573;28;20431;-72
2021/06/25 10:48:38;;;;;;;22.60;15.10;;;25.00;10.00;;;;;;5044842;28;20450;-71
2021/06/25 10:51:27;;;;;;;20.77;15.40;;;25.60;7.60;;;;;;5050984;28;20476;-72
2021/06/25 10:54:13;;;;;;;20.13;15.30;;;26.00;7.30;;;;;;5053742;28;20735;-72
2021/06/25 10:56:41;;;;;;;18.50;14.13;;;26.10;7.30;;;;;;5052773;28;20407;-77
2021/06/25 10:59:25;;;;;;;26.83;15.48;;;26.60;5.80;;;;;;5051713;28;20385;-76
2021/06/25 11:02:02;;;;;;;18.80;13.32;;;26.60;4.60;;;;;;5053013;28;20389;-76
2021/06/25 11:04:35;;;;;;;22.67;15.27;;;26.20;6.60;;;;;;5037756;28;20909;-77
2021/06/25 11:07:06;;;;;;;17.60;15.10;;;26.30;5.70;;;;;;5059544;28;20402;-76
2021/06/25 11:09:52;;;;;;;20.08;14.93;;;26.10;6.20;;;;;;5075810;28;20886;-78
2021/06/25 11:12:29;;;;;;;23.45;15.85;;;26.10;6.30;;;;;;5059194;28;20540;-76
2021/06/25 11:15:16;;;;;;;16.30;14.15;;;26.00;5.80;;;;;;5045916;28;20789;-77
2021/06/25 11:17:54;;;;;;;21.27;15.20;;;26.40;6.40;;;;;;5033504;28;20401;-76
2021/06/25 11:20:32;;;;;;;22.75;15.38;;;26.40;6.00;;;;;;5051725;28;20421;-77
2021/06/25 11:23:01;;;;;;;22.70;16.17;;;26.50;5.70;;;;;;5050198;28;20401;-77
2021/06/25 11:25:37;;;;;;;19.92;15.60;;;26.20;6.20;;;;;;5067086;28;20486;-77
2021/06/25 11:28:16;;;;;;;25.83;15.60;;;26.20;6.50;;;;;;5044147;28;20607;-77
2021/06/25 11:30:51;;;;;;;21.30;17.05;;;26.30;6.20;;;;;;5051515;28;20404;-76
2021/06/25 11:33:41;;;;;;;24.70;16.60;;;25.90;6.70;;;;;;5050232;28;20401;-77
2021/06/25 11:36:23;;;;;;;19.60;15.98;;;25.60;7.10;;;;;;5048751;28;20404;-76
2021/06/25 11:38:58;;;;;;;20.25;14.98;;;25.50;7.00;;;;;;5063860;28;20470;-77
2021/06/25 11:41:29;;;;;;;22.70;16.00;;;25.10;8.50;;;;;;5071434;28;20403;-77
2021/06/25 11:43:59;;;;;;;25.30;17.40;;;25.00;8.30;;;;;;5060533;28;20920;-77
2021/06/25 11:46:26;;;;;;;20.52;16.13;;;24.90;8.50;;;;;;5049613;28;20480;-76
2021/06/25 11:48:58;;;;;;;24.63;16.63;;;24.80;9.40;;;;;;5032737;28;20453;-74
2021/06/25 11:51:32;;;;;;;23.35;16.20;;;24.90;9.20;;;;;;5032776;28;20391;-77
2021/06/25 11:53:57;;;;;;;24.07;17.17;;;25.10;8.50;;;;;;5050120;28;20395;-76
2021/06/25 11:56:23;;;;;;;22.33;15.90;;;25.40;7.70;;;;;;5057197;28;20451;-76
2021/06/25 11:59:10;;;;;;;22.95;17.27;;;25.70;7.40;;;;;;5051640;28;20394;-76
2021/06/25 12:01:53;;;;;;;22.83;17.00;;;25.50;7.00;;;;;;5049412;28;20405;-76
2021/06/25 12:04:35;;;;;;;25.80;16.50;;;25.20;7.90;;;;;;5049795;28;20393;-76
2021/06/25 12:07:02;;;;;;;21.38;16.70;;;25.10;7.60;;;;;;5051316;28;20381;-77
2021/06/25 12:09:40;;;;;;;22.17;14.90;;;25.10;8.10;;;;;;5050229;28;20405;-77
2021/06/25 12:12:07;;;;;;;20.00;15.48;;;25.10;8.30;;;;;;5056599;28;20939;-77
2021/06/25 12:14:44;;;;;;;20.75;15.00;;;25.00;9.00;;;;;;5051645;28;20389;-78
2021/06/25 12:17:10;;;;;;;21.05;15.15;;;24.60;9.40;;;;;;5050902;28;20394;-77
2021/06/25 12:19:36;;;;;;;18.20;14.70;;;24.80;9.40;;;;;;5055661;28;20403;-77
2021/06/25 12:22:09;;;;;;;27.98;15.25;;;25.10;8.30;;;;;;5071621;28;20482;-77
2021/06/25 12:24:52;;;;;;;21.83;15.27;;;25.70;8.60;;;;;;5073173;28;20470;-76
2021/06/25 12:27:18;;;;;;;20.08;15.43;;;26.00;7.00;;;;;;5075548;28;20394;-77
2021/06/25 12:29:47;;;;;;;19.27;15.30;;;26.30;6.90;;;;;;5063860;28;20410;-78
2021/06/25 12:32:18;;;;;;;22.98;14.52;;;26.60;6.40;;;;;;5032101;28;20383;-77
2021/06/25 12:34:44;;;;;;;20.15;15.20;;;27.00;6.90;;;;;;5031430;28;20402;-77
2021/06/25 12:37:11;;;;;;;24.02;14.05;;;27.30;5.10;;;;;;5032092;28;20418;-76
2021/06/25 12:39:37;;;;;;;18.53;13.23;;;27.20;5.60;;;;;;5037048;28;20461;-76
2021/06/25 12:42:05;;;;;;;17.60;13.30;;;27.30;5.10;;;;;;5070662;28;20383;-76
2021/06/25 12:44:31;;;;;;;20.27;13.80;;;27.40;5.70;;;;;;5073938;28;20809;-75